Time;durP1;ratioP1;P1;durP2;ratioP2;P2;SDS_P1;SDS_P2;PMS_P1;PMS_P2;Temp;Humidity;BMP_temperature;BMP_pressure;BME280_temperature;BME280_humidity;BME280_pressure;Samples;Min_cycle;Max_cycle;Signal;HPM_P1;HPM_P2
2022/12/15 00:40:17;;;;;;;2.75;1.83;;;3.70;99.90;;;;;;5099085;28;20074;-74
2022/12/15 00:42:43;;;;;;;3.08;1.98;;;3.70;99.90;;;;;;5098916;28;20024;-74
2022/12/15 00:45:09;;;;;;;3.72;2.60;;;3.60;99.90;;;;;;5098500;28;20552;-74
2022/12/15 00:47:35;;;;;;;3.47;2.20;;;3.70;99.90;;;;;;5098754;28;20024;-74
2022/12/15 01:20:18;;;;;;;4.88;2.90;;;3.60;99.90;;;;;;5098069;28;20065;-75
2022/12/15 01:22:49;;;;;;;5.30;3.10;;;3.60;99.90;;;;;;5079840;28;20028;-75
2022/12/15 01:25:16;;;;;;;4.97;3.05;;;3.60;99.90;;;;;;5098177;28;20020;-75
2022/12/15 01:27:42;;;;;;;5.15;3.10;;;3.60;99.90;;;;;;5097337;28;20033;-74
2022/12/15 01:30:10;;;;;;;6.30;3.50;;;3.60;99.90;;;;;;5093880;28;20499;-75
2022/12/15 01:32:36;;;;;;;7.13;3.90;;;3.60;99.90;;;;;;5077526;28;20027;-75
2022/12/15 01:35:03;;;;;;;5.78;3.65;;;3.60;99.90;;;;;;5078516;28;20028;-76
2022/12/15 01:37:29;;;;;;;4.95;3.40;;;3.60;99.90;;;;;;5078660;28;20051;-76
2022/12/15 01:42:38;;;;;;;7.03;3.85;;;3.60;99.90;;;;;;5097115;28;20043;-76
2022/12/15 01:45:23;;;;;;;5.53;3.40;;;3.60;99.90;;;;;;5097590;28;20024;-76
2022/12/15 01:47:56;;;;;;;5.07;3.10;;;3.60;99.90;;;;;;5080629;28;20028;-75
2022/12/15 01:50:23;;;;;;;5.97;3.30;;;3.60;99.90;;;;;;5104952;28;20161;-75
2022/12/15 01:52:49;;;;;;;6.63;3.88;;;3.60;99.90;;;;;;5097544;28;20085;-74
2022/12/15 01:55:17;;;;;;;5.90;3.40;;;3.60;99.90;;;;;;5079172;28;20032;-74
2022/12/15 01:57:45;;;;;;;6.20;4.05;;;3.60;99.90;;;;;;5109489;28;20045;-75
2022/12/15 02:00:12;;;;;;;5.90;3.25;;;3.70;99.90;;;;;;5078841;28;20055;-74
2022/12/15 02:02:39;;;;;;;4.93;3.35;;;3.70;99.90;;;;;;5095993;28;20039;-75
2022/12/15 02:05:06;;;;;;;5.05;3.70;;;3.70;99.90;;;;;;5095668;28;20092;-74
2022/12/15 02:07:32;;;;;;;5.97;3.50;;;3.60;99.90;;;;;;5112114;28;20471;-75
2022/12/15 02:10:01;;;;;;;6.32;3.78;;;3.70;99.90;;;;;;5095985;28;20124;-75
2022/12/15 02:12:40;;;;;;;8.07;3.97;;;3.60;99.90;;;;;;5096852;28;20389;-75
2022/12/15 02:15:27;;;;;;;7.43;3.80;;;3.70;99.90;;;;;;5079013;28;20618;-75
2022/12/15 02:18:10;;;;;;;6.35;3.65;;;3.70;99.90;;;;;;5097176;28;20039;-75
2022/12/15 02:20:36;;;;;;;5.18;3.40;;;3.60;99.90;;;;;;5092521;28;20416;-76
2022/12/15 02:23:11;;;;;;;5.32;3.30;;;3.70;99.90;;;;;;5079116;28;20028;-76
2022/12/15 02:26:01;;;;;;;5.35;3.22;;;3.60;99.90;;;;;;5097179;28;20403;-76
2022/12/15 02:28:36;;;;;;;7.28;4.00;;;3.60;99.90;;;;;;5097443;28;20028;-75
2022/12/15 02:34:22;;;;;;;5.68;3.40;;;3.60;99.90;;;;;;5097089;28;20042;-74
2022/12/15 02:36:54;;;;;;;5.70;3.70;;;3.60;99.90;;;;;;5097250;28;20207;-74
2022/12/15 02:39:19;;;;;;;5.72;3.50;;;3.60;99.90;;;;;;5078628;28;20502;-74
2022/12/15 02:41:46;;;;;;;6.70;3.78;;;3.60;99.90;;;;;;5097377;28;20032;-74
2022/12/15 02:44:18;;;;;;;6.10;3.80;;;3.60;99.90;;;;;;5078895;28;20106;-74
2022/12/15 02:46:51;;;;;;;6.35;3.88;;;3.60;99.90;;;;;;5103436;28;20124;-77
2022/12/15 02:49:38;;;;;;;6.40;3.67;;;3.60;99.90;;;;;;5098086;28;20032;-77
2022/12/15 02:52:22;;;;;;;5.65;3.33;;;3.60;99.90;;;;;;5097252;28;20020;-75
2022/12/15 02:55:08;;;;;;;5.45;3.33;;;3.60;99.90;;;;;;5097580;28;20097;-75
2022/12/15 02:57:34;;;;;;;6.10;3.83;;;3.60;99.90;;;;;;5103088;28;20028;-75
2022/12/15 03:00:09;;;;;;;7.38;4.15;;;3.70;99.90;;;;;;5096898;28;20040;-75
2022/12/15 03:02:39;;;;;;;5.82;3.80;;;3.70;99.90;;;;;;5078129;28;20031;-76
2022/12/15 03:05:05;;;;;;;5.60;3.53;;;3.70;99.90;;;;;;5079154;28;20028;-76
2022/12/15 03:07:31;;;;;;;6.85;3.92;;;3.70;99.90;;;;;;5097049;28;20095;-76
2022/12/15 03:09:58;;;;;;;6.03;3.80;;;3.70;99.90;;;;;;5096524;28;20055;-76
2022/12/15 03:12:24;;;;;;;6.72;3.80;;;3.70;99.90;;;;;;5100447;28;20078;-76
2022/12/15 03:14:50;;;;;;;7.00;3.90;;;3.70;99.90;;;;;;5081649;28;20028;-76
2022/12/15 03:17:16;;;;;;;6.32;3.60;;;3.70;99.90;;;;;;5100440;28;20052;-75
2022/12/15 03:19:41;;;;;;;7.40;4.30;;;3.70;99.90;;;;;;5093474;28;20480;-76
2022/12/15 03:22:07;;;;;;;6.85;4.00;;;3.70;99.90;;;;;;5082490;28;20050;-76
2022/12/15 03:24:33;;;;;;;6.97;4.00;;;3.60;99.90;;;;;;5100297;28;20024;-76
2022/12/15 03:26:58;;;;;;;6.07;4.25;;;3.60;99.90;;;;;;5100482;28;20028;-76
2022/12/15 03:29:24;;;;;;;6.57;4.28;;;3.60;99.90;;;;;;5100224;28;20028;-76
2022/12/15 03:31:50;;;;;;;6.45;3.88;;;3.60;99.90;;;;;;5099761;28;20020;-76
2022/12/15 03:34:15;;;;;;;8.10;4.15;;;3.50;99.90;;;;;;5100027;28;20024;-76
2022/12/15 03:36:41;;;;;;;6.47;3.95;;;3.50;99.90;;;;;;5099692;28;20038;-76
2022/12/15 03:39:07;;;;;;;7.18;4.35;;;3.50;99.90;;;;;;5100307;28;20058;-76
2022/12/15 03:41:33;;;;;;;6.43;3.97;;;3.50;99.90;;;;;;5100233;28;20148;-76
2022/12/15 03:43:59;;;;;;;6.13;3.90;;;3.50;99.90;;;;;;5081803;28;20032;-76
2022/12/15 03:46:25;;;;;;;8.18;4.53;;;3.50;99.90;;;;;;5099491;28;20094;-75
2022/12/15 03:48:52;;;;;;;5.95;4.03;;;3.60;99.90;;;;;;5100107;28;20502;-76
2022/12/15 03:51:18;;;;;;;7.13;4.18;;;3.50;99.90;;;;;;5099847;28;20070;-75
2022/12/15 03:53:46;;;;;;;6.28;3.80;;;3.50;99.90;;;;;;5099850;28;20028;-76
2022/12/15 03:56:12;;;;;;;6.88;3.95;;;3.50;99.90;;;;;;5099633;28;20115;-76
2022/12/15 03:58:38;;;;;;;5.75;3.83;;;3.50;99.90;;;;;;5099427;28;20096;-76
2022/12/15 04:01:11;;;;;;;5.38;3.55;;;3.60;99.90;;;;;;5099559;28;20399;-76
2022/12/15 04:03:37;;;;;;;6.30;3.75;;;3.50;99.90;;;;;;5081370;28;20020;-76
2022/12/15 04:06:03;;;;;;;4.88;3.72;;;3.50;99.90;;;;;;5098988;28;20411;-75
2022/12/15 04:08:29;;;;;;;6.55;3.67;;;3.50;99.90;;;;;;5081756;28;20078;-75
2022/12/15 04:10:54;;;;;;;5.65;3.65;;;3.50;99.90;;;;;;5081027;28;20016;-75
2022/12/15 04:13:20;;;;;;;6.03;3.35;;;3.50;99.90;;;;;;5099846;28;20031;-75
2022/12/15 04:15:46;;;;;;;5.60;3.13;;;3.50;99.90;;;;;;5080710;28;20032;-76
2022/12/15 04:18:11;;;;;;;3.97;2.65;;;3.50;99.90;;;;;;5098981;28;20600;-75
2022/12/15 04:20:39;;;;;;;5.05;3.30;;;3.50;99.90;;;;;;5080977;28;20491;-76
2022/12/15 04:23:07;;;;;;;4.80;2.90;;;3.50;99.70;;;;;;5098328;28;20455;-76
2022/12/15 05:31:53;;;;;;;3.63;2.20;;;3.60;97.80;;;;;;5097780;28;20120;-76
2022/12/15 05:34:29;;;;;;;3.05;1.80;;;3.60;96.10;;;;;;5097228;28;20028;-77
2022/12/15 05:36:56;;;;;;;3.45;2.08;;;3.50;97.10;;;;;;5097226;28;20024;-76
2022/12/15 05:39:23;;;;;;;2.97;1.85;;;3.50;95.70;;;;;;5100116;28;20031;-76
2022/12/15 05:41:50;;;;;;;2.88;1.92;;;3.50;96.70;;;;;;5097214;28;20463;-77
2022/12/15 05:44:16;;;;;;;4.25;2.22;;;3.50;96.60;;;;;;5097405;28;20681;-76
2022/12/15 05:46:42;;;;;;;3.38;2.10;;;3.40;95.30;;;;;;5097066;28;21192;-76
2022/12/15 05:49:10;;;;;;;3.88;2.33;;;3.40;95.50;;;;;;5079245;28;20032;-76
2022/12/15 05:51:39;;;;;;;2.65;1.90;;;3.50;96.00;;;;;;5097705;28;20028;-76
2022/12/15 05:54:09;;;;;;;2.95;2.03;;;3.40;95.00;;;;;;5097410;28;20398;-77
2022/12/15 05:56:35;;;;;;;5.13;2.38;;;3.50;95.40;;;;;;5097630;28;20026;-76
2022/12/15 05:59:01;;;;;;;3.78;2.13;;;3.40;96.00;;;;;;5097113;28;20052;-77
2022/12/15 06:01:27;;;;;;;3.65;2.30;;;3.40;95.10;;;;;;5079168;28;20036;-76
2022/12/15 06:03:52;;;;;;;3.20;1.80;;;3.50;95.60;;;;;;5097591;28;20103;-76
2022/12/15 06:06:19;;;;;;;4.30;2.45;;;3.50;96.20;;;;;;5096893;28;20119;-76
2022/12/15 06:08:45;;;;;;;3.58;2.22;;;3.50;94.30;;;;;;5079598;28;20403;-76
2022/12/15 06:11:13;;;;;;;3.10;1.67;;;3.50;94.70;;;;;;5079058;28;20028;-77
2022/12/15 06:13:38;;;;;;;3.38;2.45;;;3.50;95.50;;;;;;5097234;28;20221;-76
2022/12/15 06:16:11;;;;;;;3.80;2.10;;;3.50;94.40;;;;;;5079226;28;20137;-77
2022/12/15 06:18:40;;;;;;;3.20;2.30;;;3.50;95.50;;;;;;5078722;28;20032;-76
2022/12/15 06:21:08;;;;;;;3.72;2.03;;;3.50;94.50;;;;;;5097275;28;20331;-76
2022/12/15 06:23:35;;;;;;;3.15;2.08;;;3.50;95.00;;;;;;5097485;28;20107;-76
2022/12/15 06:26:22;;;;;;;3.70;2.30;;;3.50;93.30;;;;;;5097065;28;20028;-76
2022/12/15 06:28:49;;;;;;;4.75;2.63;;;3.50;95.70;;;;;;5078322;28;20498;-76
2022/12/15 06:31:16;;;;;;;3.58;2.22;;;3.50;93.50;;;;;;5096165;28;20024;-77
2022/12/15 06:33:42;;;;;;;3.78;2.10;;;3.50;92.40;;;;;;5097010;28;20387;-77
2022/12/15 06:36:12;;;;;;;3.25;1.92;;;3.50;93.90;;;;;;5079369;28;20555;-77
2022/12/15 06:38:38;;;;;;;4.00;2.15;;;3.60;92.00;;;;;;5097062;28;20024;-77
2022/12/15 06:41:05;;;;;;;3.10;1.88;;;3.50;92.20;;;;;;5097101;28;20024;-76
2022/12/15 06:43:32;;;;;;;3.58;2.10;;;3.50;91.20;;;;;;5079088;28;20488;-77
2022/12/15 06:45:59;;;;;;;3.08;1.90;;;3.50;92.20;;;;;;5082355;28;20024;-78
2022/12/15 06:48:25;;;;;;;3.22;2.03;;;3.50;92.10;;;;;;5082615;28;20043;-78
2022/12/15 06:50:50;;;;;;;3.17;1.98;;;3.60;92.70;;;;;;5101277;28;20026;-78
2022/12/15 06:53:18;;;;;;;2.60;1.90;;;3.60;91.60;;;;;;5101093;28;20071;-77
2022/12/15 06:55:43;;;;;;;2.42;1.63;;;3.60;93.30;;;;;;5100961;28;20026;-78
2022/12/15 06:58:13;;;;;;;3.78;2.03;;;3.60;92.30;;;;;;5082894;28;20547;-78
2022/12/15 07:00:41;;;;;;;3.13;1.92;;;3.60;91.40;;;;;;5100112;28;20123;-78
2022/12/15 07:03:11;;;;;;;3.15;1.85;;;3.60;92.10;;;;;;5100548;28;20445;-79
2022/12/15 07:05:37;;;;;;;3.75;2.05;;;3.60;91.90;;;;;;5100797;28;20061;-79
2022/12/15 07:08:02;;;;;;;3.28;2.00;;;3.60;91.80;;;;;;5082322;28;20396;-78
2022/12/15 07:10:28;;;;;;;3.03;2.00;;;3.60;91.90;;;;;;5100502;28;20036;-77
2022/12/15 07:12:55;;;;;;;3.13;1.90;;;3.60;92.30;;;;;;5100361;28;20476;-77
2022/12/15 07:15:21;;;;;;;3.47;1.98;;;3.70;92.50;;;;;;5099996;28;20028;-77
2022/12/15 07:17:47;;;;;;;2.72;1.83;;;3.60;91.80;;;;;;5099905;28;20107;-77
2022/12/15 07:20:12;;;;;;;3.22;1.75;;;3.60;90.40;;;;;;5099296;28;20020;-76
2022/12/15 07:22:38;;;;;;;3.42;2.03;;;3.60;92.20;;;;;;5099223;28;20020;-76
2022/12/15 07:25:04;;;;;;;2.92;2.08;;;3.70;92.50;;;;;;5098898;28;20020;-78
2022/12/15 07:27:30;;;;;;;2.88;1.90;;;3.70;91.50;;;;;;5099107;28;20020;-77
2022/12/15 07:29:55;;;;;;;3.20;2.00;;;3.70;91.70;;;;;;5081178;28;20020;-77
2022/12/15 07:32:21;;;;;;;3.50;2.10;;;3.70;92.00;;;;;;5081097;28;20032;-77
2022/12/15 07:34:47;;;;;;;2.85;2.08;;;3.70;91.80;;;;;;5099213;28;20016;-77
2022/12/15 07:37:13;;;;;;;3.03;1.77;;;3.70;92.40;;;;;;5099393;28;20438;-77
2022/12/15 07:39:39;;;;;;;3.30;1.92;;;3.70;92.60;;;;;;5081090;28;20044;-79
2022/12/15 07:42:04;;;;;;;2.95;1.90;;;3.70;91.40;;;;;;5078791;28;20456;-77
2022/12/15 07:44:30;;;;;;;3.45;2.20;;;3.80;92.30;;;;;;5080662;28;20138;-78
2022/12/15 07:46:56;;;;;;;2.80;2.08;;;3.70;91.80;;;;;;5098569;28;20119;-78
2022/12/15 07:49:22;;;;;;;3.33;2.08;;;3.70;90.10;;;;;;5098052;28;20070;-79
2022/12/15 07:51:48;;;;;;;3.85;2.17;;;3.70;90.70;;;;;;5090486;28;20028;-79
2022/12/15 07:54:14;;;;;;;3.47;2.17;;;3.70;91.20;;;;;;5079799;28;20053;-79
2022/12/15 07:56:40;;;;;;;4.20;2.17;;;3.70;92.80;;;;;;5092950;28;20565;-80
2022/12/15 07:59:07;;;;;;;3.63;1.85;;;3.70;90.90;;;;;;5098487;28;20047;-78
2022/12/15 08:01:34;;;;;;;2.90;1.73;;;3.70;91.50;;;;;;5080278;28;20445;-79
2022/12/15 08:04:00;;;;;;;2.75;1.95;;;3.80;92.00;;;;;;5081888;28;20615;-78
2022/12/15 08:06:26;;;;;;;4.28;1.90;;;3.80;90.30;;;;;;5108213;28;20063;-79
2022/12/15 08:08:51;;;;;;;2.58;1.92;;;3.80;91.80;;;;;;5108999;28;20501;-78
2022/12/15 08:11:21;;;;;;;3.70;2.08;;;3.80;92.20;;;;;;5108029;28;20095;-78
2022/12/15 08:13:47;;;;;;;2.55;1.88;;;3.80;93.00;;;;;;5106018;28;20023;-79
2022/12/15 08:16:12;;;;;;;3.80;2.00;;;3.90;91.90;;;;;;5107647;28;20030;-78
2022/12/15 08:18:38;;;;;;;3.75;2.05;;;3.80;92.20;;;;;;5102033;28;20028;-80
2022/12/15 08:21:07;;;;;;;2.83;1.67;;;3.90;92.00;;;;;;5080424;28;20057;-79
2022/12/15 08:23:34;;;;;;;2.88;1.83;;;3.90;91.90;;;;;;5080657;28;20044;-78
2022/12/15 08:26:17;;;;;;;3.33;1.90;;;3.90;92.20;;;;;;5096609;28;20488;-77
2022/12/15 08:28:44;;;;;;;3.13;1.77;;;3.90;91.60;;;;;;5095687;28;20069;-77
2022/12/15 08:31:21;;;;;;;2.83;1.50;;;3.90;90.90;;;;;;5079536;28;20031;-76
2022/12/15 08:33:47;;;;;;;2.60;1.80;;;3.90;92.30;;;;;;5099017;28;20045;-76
2022/12/15 08:36:16;;;;;;;3.25;1.88;;;4.00;92.00;;;;;;5096721;28;20089;-77
2022/12/15 08:38:45;;;;;;;2.60;1.70;;;4.00;91.40;;;;;;5097148;28;20073;-76
2022/12/15 08:41:21;;;;;;;2.97;1.67;;;4.00;91.20;;;;;;5097013;28;20510;-76
2022/12/15 08:43:48;;;;;;;2.35;1.45;;;4.00;90.60;;;;;;5113014;28;20077;-77
2022/12/15 08:46:17;;;;;;;2.42;1.60;;;4.00;90.60;;;;;;5079194;28;20024;-76
2022/12/15 08:48:43;;;;;;;2.97;1.73;;;4.00;90.90;;;;;;5078871;28;20131;-78
2022/12/15 08:51:09;;;;;;;2.63;1.75;;;4.10;90.90;;;;;;5096442;28;20028;-80
2022/12/15 08:53:35;;;;;;;3.47;1.73;;;4.20;91.10;;;;;;5096684;28;20019;-80
2022/12/15 08:56:07;;;;;;;2.90;1.80;;;4.20;90.10;;;;;;5099929;28;20032;-80
2022/12/15 08:58:33;;;;;;;4.05;1.70;;;4.20;91.90;;;;;;5098013;28;20039;-72
2022/12/15 09:01:05;;;;;;;3.20;1.75;;;4.30;90.10;;;;;;5095597;28;20028;-76
2022/12/15 09:03:31;;;;;;;2.25;1.48;;;4.30;85.00;;;;;;5094450;28;20019;-78
2022/12/15 09:06:02;;;;;;;2.70;1.65;;;4.20;88.20;;;;;;5077789;28;20032;-75
2022/12/15 09:08:29;;;;;;;2.55;1.60;;;4.30;87.20;;;;;;5096993;28;20040;-77
2022/12/15 09:11:00;;;;;;;2.30;1.67;;;4.30;86.80;;;;;;5077486;28;20480;-77
2022/12/15 09:13:26;;;;;;;2.33;1.50;;;4.30;89.30;;;;;;5094209;28;20031;-77
2022/12/15 09:15:57;;;;;;;1.95;1.42;;;4.30;86.20;;;;;;5096037;28;20028;-78
2022/12/15 09:18:23;;;;;;;2.00;1.50;;;4.30;87.90;;;;;;5077552;28;20400;-78
2022/12/15 09:20:48;;;;;;;2.33;1.45;;;4.40;85.20;;;;;;5078003;28;20095;-79
2022/12/15 09:23:14;;;;;;;2.33;1.40;;;4.30;81.20;;;;;;5097269;28;20056;-78
2022/12/15 09:25:40;;;;;;;2.60;1.80;;;4.30;82.30;;;;;;5077979;28;20027;-78
2022/12/15 09:28:05;;;;;;;1.90;1.52;;;4.30;84.10;;;;;;5077723;28;20123;-79
2022/12/15 09:30:31;;;;;;;2.95;1.48;;;4.30;86.10;;;;;;5095757;28;20028;-79
2022/12/15 09:32:57;;;;;;;3.17;1.55;;;4.40;86.30;;;;;;5097698;28;20019;-79
2022/12/15 09:35:28;;;;;;;2.53;1.40;;;4.40;82.90;;;;;;5097026;28;20036;-79
2022/12/15 09:37:55;;;;;;;1.95;1.23;;;4.40;83.00;;;;;;5096612;28;20024;-78
2022/12/15 09:40:21;;;;;;;2.58;1.30;;;4.40;84.00;;;;;;5097081;28;20035;-77
2022/12/15 09:42:52;;;;;;;2.15;1.30;;;4.40;84.10;;;;;;5079002;28;20020;-75
2022/12/15 09:45:28;;;;;;;1.77;1.30;;;4.40;80.70;;;;;;5096938;28;20032;-78
2022/12/15 09:48:22;;;;;;;2.10;1.40;;;4.40;79.30;;;;;;5097344;28;20088;-77
2022/12/15 09:50:51;;;;;;;3.13;2.20;;;4.50;83.90;;;;;;5085560;28;20036;-78
2022/12/15 09:53:20;;;;;;;2.53;1.35;;;4.50;79.40;;;;;;5095120;28;20028;-74
2022/12/15 09:55:50;;;;;;;2.13;1.27;;;4.40;79.50;;;;;;5096049;28;20012;-74
2022/12/15 09:58:31;;;;;;;1.65;1.23;;;4.40;76.30;;;;;;5094923;28;20024;-74
2022/12/15 10:01:32;;;;;;;2.28;1.50;;;4.40;78.30;;;;;;5096057;28;20111;-74
2022/12/15 10:04:22;;;;;;;2.33;1.33;;;4.50;81.80;;;;;;5087192;28;20031;-74
2022/12/15 10:07:05;;;;;;;1.88;1.17;;;4.50;81.00;;;;;;5094086;28;20013;-74
2022/12/15 10:09:30;;;;;;;2.22;1.40;;;4.50;80.60;;;;;;5091824;28;20035;-74
2022/12/15 10:12:10;;;;;;;2.78;1.60;;;4.60;77.80;;;;;;5076719;28;20035;-74
2022/12/15 10:14:48;;;;;;;2.25;1.33;;;4.60;82.10;;;;;;5095280;28;20024;-75
2022/12/15 10:17:32;;;;;;;2.40;1.30;;;4.60;79.60;;;;;;5095325;28;20022;-74
2022/12/15 10:20:14;;;;;;;2.03;1.42;;;4.60;78.00;;;;;;5084865;28;20047;-73
2022/12/15 10:22:39;;;;;;;3.67;1.60;;;4.60;80.30;;;;;;5096173;28;20089;-74
2022/12/15 10:25:21;;;;;;;1.85;1.20;;;4.60;77.80;;;;;;5095517;28;20039;-78
2022/12/15 10:27:56;;;;;;;1.60;1.00;;;4.60;79.10;;;;;;5096334;28;20008;-77
2022/12/15 10:30:21;;;;;;;1.65;1.35;;;4.60;79.40;;;;;;5095506;28;20031;-78
2022/12/15 10:32:50;;;;;;;1.17;0.93;;;4.70;79.70;;;;;;5077735;28;20016;-77
2022/12/15 10:35:30;;;;;;;2.15;1.45;;;4.70;80.80;;;;;;5092944;28;20032;-77
2022/12/15 10:38:02;;;;;;;2.47;1.17;;;4.70;82.60;;;;;;5090713;28;20045;-77
2022/12/15 10:40:45;;;;;;;2.03;1.63;;;4.70;79.80;;;;;;5093732;28;20028;-78
2022/12/15 10:43:26;;;;;;;2.08;1.20;;;4.80;80.90;;;;;;5076388;28;20025;-78
2022/12/15 10:46:17;;;;;;;1.83;1.20;;;4.80;80.70;;;;;;5065921;28;20032;-78
2022/12/15 10:48:48;;;;;;;2.65;1.40;;;4.80;81.90;;;;;;5096018;28;20020;-78
2022/12/15 10:51:20;;;;;;;1.55;1.02;;;4.80;79.00;;;;;;5078576;28;20030;-76
2022/12/15 10:53:53;;;;;;;2.03;1.20;;;4.80;81.10;;;;;;5078592;28;20177;-77
2022/12/15 10:56:20;;;;;;;1.70;1.20;;;4.80;81.90;;;;;;5074455;28;20193;-79
2022/12/15 10:58:52;;;;;;;2.60;1.48;;;4.90;83.40;;;;;;5099237;28;20043;-78
2022/12/15 11:01:23;;;;;;;2.13;1.50;;;4.90;78.80;;;;;;5108027;28;20053;-76
2022/12/15 11:03:52;;;;;;;2.90;1.50;;;4.90;80.30;;;;;;5108140;28;20050;-76
2022/12/15 11:06:24;;;;;;;2.72;1.77;;;4.90;78.40;;;;;;5102898;28;20028;-76
2022/12/15 11:08:53;;;;;;;2.17;1.60;;;4.90;78.10;;;;;;5095858;28;20447;-76
2022/12/15 11:14:17;;;;;;;2.33;1.50;;;4.90;76.40;;;;;;5094555;28;20074;-76
2022/12/15 11:16:50;;;;;;;2.15;1.55;;;4.90;77.00;;;;;;5096941;28;20024;-79
2022/12/15 11:19:33;;;;;;;2.00;1.55;;;4.90;78.80;;;;;;5089011;28;20123;-77
2022/12/15 11:22:23;;;;;;;1.65;1.05;;;4.90;78.20;;;;;;5091312;28;20035;-76
2022/12/15 11:25:15;;;;;;;2.13;1.48;;;5.00;79.20;;;;;;5091987;28;20024;-77
2022/12/15 11:27:43;;;;;;;1.63;1.00;;;5.00;78.00;;;;;;5098164;28;20020;-76
2022/12/15 11:30:15;;;;;;;1.73;1.13;;;5.00;77.90;;;;;;5091406;28;20012;-77
2022/12/15 11:32:47;;;;;;;2.22;1.20;;;5.00;79.00;;;;;;5094812;28;20455;-76
2022/12/15 11:35:38;;;;;;;2.40;1.08;;;5.10;78.50;;;;;;5095285;28;20051;-78
2022/12/15 11:38:24;;;;;;;1.88;1.23;;;5.10;79.70;;;;;;5099465;28;20031;-77
2022/12/15 11:40:53;;;;;;;3.35;1.13;;;5.20;80.40;;;;;;5093431;28;20020;-75
2022/12/15 11:43:42;;;;;;;1.90;1.35;;;5.10;75.50;;;;;;5084170;28;20085;-78
2022/12/15 11:46:51;;;;;;;1.85;1.23;;;5.10;76.00;;;;;;5122554;27;20032;-77
2022/12/15 11:49:36;;;;;;;1.85;1.00;;;5.10;78.20;;;;;;5078930;28;20533;-77
2022/12/15 11:52:08;;;;;;;1.80;1.17;;;5.20;77.70;;;;;;5104312;28;20029;-83
2022/12/15 11:54:42;;;;;;;1.27;0.95;;;5.20;76.60;;;;;;5081007;28;20024;-83
2022/12/15 11:57:43;;;;;;;1.95;1.13;;;5.30;76.90;;;;;;5067026;28;20028;-84
2022/12/15 12:00:18;;;;;;;2.03;1.02;;;5.30;78.40;;;;;;5114887;28;20060;-83
2022/12/15 12:03:07;;;;;;;1.58;0.93;;;5.30;76.40;;;;;;5082458;28;20026;-84
2022/12/15 12:06:00;;;;;;;1.58;0.90;;;5.40;79.10;;;;;;5100055;28;20028;-84
2022/12/15 12:08:34;;;;;;;1.60;0.98;;;5.40;78.60;;;;;;5099998;28;20020;-83
2022/12/15 12:11:06;;;;;;;1.20;0.90;;;5.50;75.60;;;;;;5100059;28;20032;-83
2022/12/15 12:13:53;;;;;;;1.70;1.00;;;5.50;78.20;;;;;;5072817;28;20016;-84
2022/12/15 12:16:40;;;;;;;1.40;0.90;;;5.60;76.90;;;;;;5079654;28;20032;-83
2022/12/15 12:19:35;;;;;;;1.88;1.13;;;5.60;79.30;;;;;;5099613;28;20476;-82
2022/12/15 12:22:30;;;;;;;1.52;1.08;;;5.50;75.60;;;;;;5099422;28;20038;-80
2022/12/15 12:25:03;;;;;;;1.33;0.93;;;5.50;77.50;;;;;;5076222;28;20516;-83
2022/12/15 12:27:41;;;;;;;1.45;0.88;;;5.50;73.90;;;;;;5099144;28;20035;-85
2022/12/15 12:30:14;;;;;;;2.08;1.10;;;5.50;73.20;;;;;;5080817;28;20013;-79
2022/12/15 12:32:50;;;;;;;1.35;1.10;;;5.50;74.20;;;;;;5080635;28;20117;-78
2022/12/15 12:35:39;;;;;;;1.75;1.13;;;5.50;75.20;;;;;;5080900;28;20024;-79
2022/12/15 12:38:08;;;;;;;1.67;1.27;;;5.50;75.00;;;;;;5105139;28;20032;-83
2022/12/15 12:40:40;;;;;;;1.50;1.08;;;5.50;74.40;;;;;;5098501;28;20085;-80
2022/12/15 12:43:07;;;;;;;1.90;1.10;;;5.40;72.60;;;;;;5098500;28;20032;-82
2022/12/15 12:45:44;;;;;;;1.90;1.02;;;5.40;70.40;;;;;;5098479;28;20107;-81
2022/12/15 12:48:28;;;;;;;1.88;1.20;;;5.40;70.60;;;;;;5080754;28;20510;-81
2022/12/15 12:51:25;;;;;;;1.83;0.90;;;5.30;71.30;;;;;;5080512;28;20027;-82
2022/12/15 12:53:51;;;;;;;1.67;0.80;;;5.40;72.20;;;;;;5098895;28;20024;-82
2022/12/15 12:56:42;;;;;;;1.75;1.20;;;5.40;73.00;;;;;;5098717;28;20028;-81
2022/12/15 12:59:26;;;;;;;1.50;0.93;;;5.40;73.20;;;;;;5114628;28;20446;-81
2022/12/15 13:02:09;;;;;;;1.52;1.10;;;5.40;71.80;;;;;;5090125;28;20016;-74
2022/12/15 13:04:38;;;;;;;1.60;1.00;;;5.50;71.80;;;;;;5091185;28;20496;-74
2022/12/15 13:07:24;;;;;;;2.28;1.20;;;5.50;72.50;;;;;;5105480;28;20054;-77
2022/12/15 13:10:07;;;;;;;1.92;1.23;;;5.50;72.40;;;;;;5090155;28;20020;-82
2022/12/15 13:12:51;;;;;;;1.50;0.90;;;5.60;70.20;;;;;;5097950;28;20115;-79
2022/12/15 13:15:26;;;;;;;1.70;1.10;;;5.60;74.10;;;;;;5079241;28;20441;-75
2022/12/15 13:18:05;;;;;;;2.35;1.35;;;5.60;71.70;;;;;;5087647;28;20031;-75
2022/12/15 13:20:36;;;;;;;1.92;1.27;;;5.60;71.70;;;;;;5099651;28;20028;-82
2022/12/15 13:23:20;;;;;;;1.10;0.80;;;5.60;71.30;;;;;;5083981;28;20073;-80
2022/12/15 13:25:52;;;;;;;2.33;1.27;;;5.60;70.00;;;;;;5099482;28;20070;-80
2022/12/15 13:28:38;;;;;;;2.08;1.58;;;5.70;70.20;;;;;;5094860;28;20491;-81
2022/12/15 13:31:19;;;;;;;1.75;1.25;;;5.60;70.20;;;;;;5085289;28;20023;-82
2022/12/15 13:33:48;;;;;;;2.20;1.27;;;5.60;70.20;;;;;;5102104;28;20049;-81
2022/12/15 13:36:36;;;;;;;1.48;1.17;;;5.60;67.00;;;;;;5090279;28;20027;-82
2022/12/15 13:39:27;;;;;;;1.92;1.10;;;5.60;68.80;;;;;;5103486;28;20116;-84
2022/12/15 13:41:56;;;;;;;1.50;1.15;;;5.60;70.00;;;;;;5100221;28;20103;-84
2022/12/15 13:44:30;;;;;;;2.25;1.17;;;5.60;66.00;;;;;;5079951;28;20035;-84
2022/12/15 13:47:06;;;;;;;1.95;1.10;;;5.60;67.10;;;;;;5108552;28;20046;-81
2022/12/15 13:49:58;;;;;;;1.60;1.10;;;5.70;67.90;;;;;;5108608;28;20022;-84
2022/12/15 13:52:23;;;;;;;1.95;1.10;;;5.70;67.00;;;;;;5081477;28;20043;-84
2022/12/15 13:55:02;;;;;;;2.20;1.15;;;5.70;68.30;;;;;;5109413;28;20023;-81
2022/12/15 13:57:33;;;;;;;1.20;0.88;;;5.80;70.40;;;;;;5089593;28;20023;-79
2022/12/15 14:00:17;;;;;;;1.90;1.20;;;5.80;69.50;;;;;;5083546;28;20046;-79
2022/12/15 14:02:43;;;;;;;2.08;1.20;;;5.80;67.80;;;;;;5109463;28;20047;-79
2022/12/15 14:05:22;;;;;;;1.90;1.15;;;5.90;69.30;;;;;;5087953;28;20027;-84
2022/12/15 14:07:55;;;;;;;1.73;1.15;;;5.90;67.60;;;;;;5078765;28;20024;-78
2022/12/15 14:10:35;;;;;;;1.63;0.90;;;5.80;65.70;;;;;;5096653;28;20434;-77
2022/12/15 14:13:34;;;;;;;2.35;1.10;;;5.90;67.40;;;;;;5095001;28;20012;-77
2022/12/15 14:16:21;;;;;;;1.77;1.10;;;5.90;67.90;;;;;;5088711;28;20048;-76
2022/12/15 14:19:08;;;;;;;1.63;1.00;;;5.90;68.70;;;;;;5089590;28;20019;-78
2022/12/15 14:21:34;;;;;;;1.70;0.93;;;5.90;67.00;;;;;;5069185;28;20059;-78
2022/12/15 14:24:00;;;;;;;1.17;0.80;;;5.90;64.10;;;;;;5108408;28;20032;-78
2022/12/15 14:26:29;;;;;;;1.80;1.10;;;5.90;65.10;;;;;;5087547;28;20055;-77
2022/12/15 14:29:01;;;;;;;1.42;0.80;;;5.90;63.00;;;;;;5103619;28;20004;-78
2022/12/15 14:31:27;;;;;;;2.15;1.17;;;5.90;65.10;;;;;;5086928;28;20091;-77
2022/12/15 14:34:26;;;;;;;2.05;1.25;;;5.90;63.50;;;;;;5091965;28;20528;-77
2022/12/15 14:36:54;;;;;;;1.65;1.10;;;5.90;63.40;;;;;;5045114;28;20068;-78
2022/12/15 14:39:24;;;;;;;1.98;1.15;;;5.90;65.40;;;;;;5096685;28;20023;-76
2022/12/15 14:41:52;;;;;;;2.17;1.10;;;5.90;62.40;;;;;;5107249;28;20047;-77
2022/12/15 14:44:18;;;;;;;2.30;1.17;;;5.90;64.90;;;;;;5103844;28;20118;-77
2022/12/15 14:46:48;;;;;;;1.77;1.20;;;5.90;64.30;;;;;;5083928;28;20094;-77
2022/12/15 14:49:24;;;;;;;1.95;1.15;;;5.90;62.20;;;;;;5103623;28;20406;-77
2022/12/15 14:52:00;;;;;;;2.67;1.10;;;5.90;65.00;;;;;;5090341;28;20074;-78
2022/12/15 14:54:35;;;;;;;1.80;1.20;;;5.90;64.00;;;;;;5102522;28;20103;-77
2022/12/15 14:57:14;;;;;;;1.77;0.93;;;5.90;65.00;;;;;;5102199;28;20064;-76
2022/12/15 14:59:43;;;;;;;1.90;1.17;;;5.90;66.60;;;;;;5110494;28;20057;-76
2022/12/15 15:02:25;;;;;;;2.60;1.10;;;5.90;63.00;;;;;;5102451;28;20515;-75
2022/12/15 15:04:58;;;;;;;2.17;1.13;;;5.90;65.10;;;;;;5093967;28;20016;-75
2022/12/15 15:07:25;;;;;;;1.77;0.98;;;5.90;65.60;;;;;;5109319;28;20020;-77
2022/12/15 15:09:52;;;;;;;1.33;0.82;;;5.80;64.20;;;;;;5108510;28;20880;-76
2022/12/15 15:12:20;;;;;;;1.25;1.00;;;5.80;64.30;;;;;;5104494;28;20575;-76
2022/12/15 15:14:50;;;;;;;1.67;0.90;;;5.80;64.40;;;;;;5104614;28;20099;-79
2022/12/15 15:17:21;;;;;;;1.77;1.08;;;5.80;63.90;;;;;;5115394;28;20015;-76
2022/12/15 15:19:57;;;;;;;1.45;1.00;;;5.80;64.80;;;;;;5105732;28;20103;-76
2022/12/15 15:22:39;;;;;;;2.17;1.00;;;5.80;64.50;;;;;;5102172;28;20507;-75
2022/12/15 15:25:47;;;;;;;1.55;1.10;;;5.70;63.50;;;;;;5097739;28;20047;-75
2022/12/15 15:28:17;;;;;;;1.48;1.00;;;5.70;64.50;;;;;;5046448;28;20028;-77
2022/12/15 15:30:53;;;;;;;1.50;0.90;;;5.70;64.40;;;;;;5099626;28;20028;-81
2022/12/15 15:33:19;;;;;;;1.13;0.80;;;5.70;62.80;;;;;;5090605;28;20023;-81
2022/12/15 15:35:49;;;;;;;1.58;0.95;;;5.60;63.20;;;;;;5099756;28;20047;-76
2022/12/15 15:38:30;;;;;;;1.80;1.13;;;5.60;64.00;;;;;;5099636;28;20020;-77
2022/12/15 15:41:10;;;;;;;1.83;1.00;;;5.60;64.10;;;;;;5081794;28;20028;-82
2022/12/15 15:43:35;;;;;;;1.27;0.80;;;5.60;63.70;;;;;;5099313;28;20036;-76
2022/12/15 15:46:09;;;;;;;1.63;1.10;;;5.50;63.90;;;;;;5099277;28;20028;-78
2022/12/15 15:48:41;;;;;;;1.30;0.77;;;5.50;62.40;;;;;;5080819;28;20023;-77